sensor_id;sensor_type;location;lat;lon;timestamp;P1;durP1;ratioP1;P2;durP2;ratioP2
24153;SDS011;12312;53.362;-1.518;2022-09-06T00:00:34;5.80;;;1.90;;
24153;SDS011;12312;53.362;-1.518;2022-09-06T00:03:01;3.25;;;1.55;;
24153;SDS011;12312;53.362;-1.518;2022-09-06T00:05:27;5.53;;;2.17;;
24153;SDS011;12312;53.362;-1.518;2022-09-06T00:07:57;7.57;;;2.35;;
24153;SDS011;12312;53.362;-1.518;2022-09-06T00:10:29;6.05;;;2.22;;
24153;SDS011;12312;53.362;-1.518;2022-09-06T00:12:58;7.05;;;2.30;;
24153;SDS011;12312;53.362;-1.518;2022-09-06T00:15:31;6.88;;;2.45;;
24153;SDS011;12312;53.362;-1.518;2022-09-06T00:17:58;6.78;;;2.50;;
24153;SDS011;12312;53.362;-1.518;2022-09-06T00:20:26;6.93;;;2.50;;
24153;SDS011;12312;53.362;-1.518;2022-09-06T00:22:59;6.65;;;2.42;;
24153;SDS011;12312;53.362;-1.518;2022-09-06T00:25:27;5.53;;;2.05;;
24153;SDS011;12312;53.362;-1.518;2022-09-06T00:27:55;2.55;;;1.52;;
24153;SDS011;12312;53.362;-1.518;2022-09-06T00:30:21;3.03;;;1.40;;
24153;SDS011;12312;53.362;-1.518;2022-09-06T00:32:47;2.65;;;1.25;;
24153;SDS011;12312;53.362;-1.518;2022-09-06T00:35:13;4.10;;;1.20;;
24153;SDS011;12312;53.362;-1.518;2022-09-06T00:37:39;4.15;;;1.50;;
24153;SDS011;12312;53.362;-1.518;2022-09-06T00:40:04;3.17;;;1.35;;
24153;SDS011;12312;53.362;-1.518;2022-09-06T00:42:31;2.75;;;1.42;;
24153;SDS011;12312;53.362;-1.518;2022-09-06T00:44:56;2.72;;;1.23;;
24153;SDS011;12312;53.362;-1.518;2022-09-06T00:47:22;1.88;;;1.30;;
24153;SDS011;12312;53.362;-1.518;2022-09-06T00:49:48;1.85;;;1.20;;
24153;SDS011;12312;53.362;-1.518;2022-09-06T00:52:17;5.13;;;1.85;;
24153;SDS011;12312;53.362;-1.518;2022-09-06T00:54:44;3.75;;;1.60;;
24153;SDS011;12312;53.362;-1.518;2022-09-06T00:57:10;7.40;;;2.20;;
24153;SDS011;12312;53.362;-1.518;2022-09-06T00:59:39;4.78;;;2.00;;
24153;SDS011;12312;53.362;-1.518;2022-09-06T01:02:06;6.03;;;1.92;;
24153;SDS011;12312;53.362;-1.518;2022-09-06T01:04:33;5.60;;;2.35;;
24153;SDS011;12312;53.362;-1.518;2022-09-06T01:18:16;4.35;;;2.13;;
24153;SDS011;12312;53.362;-1.518;2022-09-06T01:28:59;4.82;;;2.15;;
24153;SDS011;12312;53.362;-1.518;2022-09-06T01:31:39;6.13;;;2.28;;
24153;SDS011;12312;53.362;-1.518;2022-09-06T01:34:12;3.85;;;1.60;;
24153;SDS011;12312;53.362;-1.518;2022-09-06T01:36:55;4.93;;;1.65;;
24153;SDS011;12312;53.362;-1.518;2022-09-06T01:39:28;3.40;;;1.67;;
24153;SDS011;12312;53.362;-1.518;2022-09-06T01:41:56;6.00;;;1.90;;
24153;SDS011;12312;53.362;-1.518;2022-09-06T01:44:24;3.63;;;1.60;;
24153;SDS011;12312;53.362;-1.518;2022-09-06T01:47:02;3.60;;;1.17;;
24153;SDS011;12312;53.362;-1.518;2022-09-06T01:58:36;0.75;;;0.60;;
24153;SDS011;12312;53.362;-1.518;2022-09-06T02:01:05;1.00;;;0.70;;
24153;SDS011;12312;53.362;-1.518;2022-09-06T02:06:25;2.55;;;0.70;;
24153;SDS011;12312;53.362;-1.518;2022-09-06T02:09:02;3.03;;;0.80;;
24153;SDS011;12312;53.362;-1.518;2022-09-06T02:11:32;1.40;;;0.77;;
24153;SDS011;12312;53.362;-1.518;2022-09-06T02:14:09;1.88;;;0.90;;
24153;SDS011;12312;53.362;-1.518;2022-09-06T02:16:41;3.50;;;2.10;;
24153;SDS011;12312;53.362;-1.518;2022-09-06T02:19:14;12.35;;;2.88;;
24153;SDS011;12312;53.362;-1.518;2022-09-06T02:22:08;12.60;;;3.65;;
24153;SDS011;12312;53.362;-1.518;2022-09-06T02:24:35;6.38;;;2.65;;
24153;SDS011;12312;53.362;-1.518;2022-09-06T02:27:05;4.20;;;2.20;;
24153;SDS011;12312;53.362;-1.518;2022-09-06T02:29:32;3.58;;;2.17;;
24153;SDS011;12312;53.362;-1.518;2022-09-06T02:32:21;3.28;;;1.90;;
24153;SDS011;12312;53.362;-1.518;2022-09-06T02:34:50;3.25;;;1.80;;
24153;SDS011;12312;53.362;-1.518;2022-09-06T02:37:17;4.20;;;1.70;;
24153;SDS011;12312;53.362;-1.518;2022-09-06T02:39:43;3.90;;;1.80;;
24153;SDS011;12312;53.362;-1.518;2022-09-06T02:42:09;3.60;;;1.75;;
24153;SDS011;12312;53.362;-1.518;2022-09-06T02:44:37;3.92;;;2.63;;
24153;SDS011;12312;53.362;-1.518;2022-09-06T02:47:03;5.18;;;3.58;;
24153;SDS011;12312;53.362;-1.518;2022-09-06T02:49:29;6.97;;;3.58;;
24153;SDS011;12312;53.362;-1.518;2022-09-06T02:51:55;5.68;;;4.05;;
24153;SDS011;12312;53.362;-1.518;2022-09-06T02:54:21;5.63;;;3.95;;
24153;SDS011;12312;53.362;-1.518;2022-09-06T02:56:47;6.72;;;4.32;;
24153;SDS011;12312;53.362;-1.518;2022-09-06T02:59:13;7.95;;;5.72;;
24153;SDS011;12312;53.362;-1.518;2022-09-06T03:01:39;7.20;;;5.40;;
24153;SDS011;12312;53.362;-1.518;2022-09-06T03:04:05;7.72;;;4.90;;
24153;SDS011;12312;53.362;-1.518;2022-09-06T03:06:30;7.10;;;5.22;;
24153;SDS011;12312;53.362;-1.518;2022-09-06T03:08:57;6.80;;;5.45;;
24153;SDS011;12312;53.362;-1.518;2022-09-06T03:11:25;11.65;;;7.15;;
24153;SDS011;12312;53.362;-1.518;2022-09-06T03:13:51;10.48;;;7.50;;
24153;SDS011;12312;53.362;-1.518;2022-09-06T03:16:18;12.25;;;8.18;;
24153;SDS011;12312;53.362;-1.518;2022-09-06T03:18:44;12.65;;;8.13;;
24153;SDS011;12312;53.362;-1.518;2022-09-06T03:21:09;10.55;;;7.93;;
24153;SDS011;12312;53.362;-1.518;2022-09-06T03:23:35;11.88;;;8.20;;
24153;SDS011;12312;53.362;-1.518;2022-09-06T03:26:04;14.32;;;8.40;;
24153;SDS011;12312;53.362;-1.518;2022-09-06T03:28:30;13.43;;;9.35;;
24153;SDS011;12312;53.362;-1.518;2022-09-06T03:30:56;13.93;;;9.27;;
24153;SDS011;12312;53.362;-1.518;2022-09-06T03:33:22;14.82;;;9.35;;
24153;SDS011;12312;53.362;-1.518;2022-09-06T03:35:55;13.57;;;9.43;;
24153;SDS011;12312;53.362;-1.518;2022-09-06T03:38:23;14.77;;;9.83;;
24153;SDS011;12312;53.362;-1.518;2022-09-06T03:40:50;12.40;;;8.98;;
24153;SDS011;12312;53.362;-1.518;2022-09-06T03:43:20;14.23;;;8.98;;
24153;SDS011;12312;53.362;-1.518;2022-09-06T03:45:47;13.30;;;9.40;;
24153;SDS011;12312;53.362;-1.518;2022-09-06T03:48:15;13.45;;;9.95;;
24153;SDS011;12312;53.362;-1.518;2022-09-06T03:50:49;14.82;;;10.80;;
24153;SDS011;12312;53.362;-1.518;2022-09-06T03:53:17;13.13;;;10.70;;
24153;SDS011;12312;53.362;-1.518;2022-09-06T03:55:47;14.35;;;10.50;;
24153;SDS011;12312;53.362;-1.518;2022-09-06T03:58:15;16.90;;;12.05;;
24153;SDS011;12312;53.362;-1.518;2022-09-06T04:00:42;15.73;;;11.60;;
24153;SDS011;12312;53.362;-1.518;2022-09-06T04:03:07;17.88;;;11.82;;
24153;SDS011;12312;53.362;-1.518;2022-09-06T04:05:33;15.27;;;12.05;;
24153;SDS011;12312;53.362;-1.518;2022-09-06T04:08:00;15.88;;;12.50;;
24153;SDS011;12312;53.362;-1.518;2022-09-06T04:10:27;17.90;;;13.27;;
24153;SDS011;12312;53.362;-1.518;2022-09-06T04:13:21;16.83;;;11.50;;
24153;SDS011;12312;53.362;-1.518;2022-09-06T04:15:47;16.17;;;12.65;;
24153;SDS011;12312;53.362;-1.518;2022-09-06T04:18:14;18.77;;;13.32;;
24153;SDS011;12312;53.362;-1.518;2022-09-06T04:20:40;17.05;;;13.48;;
24153;SDS011;12312;53.362;-1.518;2022-09-06T04:23:06;19.90;;;14.25;;
24153;SDS011;12312;53.362;-1.518;2022-09-06T04:25:32;17.17;;;13.23;;
24153;SDS011;12312;53.362;-1.518;2022-09-06T04:27:58;20.52;;;14.32;;
24153;SDS011;12312;53.362;-1.518;2022-09-06T04:30:24;21.45;;;14.43;;
24153;SDS011;12312;53.362;-1.518;2022-09-06T04:32:50;23.08;;;14.55;;
24153;SDS011;12312;53.362;-1.518;2022-09-06T04:35:17;22.50;;;14.05;;
24153;SDS011;12312;53.362;-1.518;2022-09-06T04:37:43;20.08;;;14.35;;
24153;SDS011;12312;53.362;-1.518;2022-09-06T04:40:08;20.17;;;13.85;;
24153;SDS011;12312;53.362;-1.518;2022-09-06T04:42:34;22.83;;;14.18;;
24153;SDS011;12312;53.362;-1.518;2022-09-06T04:45:00;21.58;;;15.57;;
24153;SDS011;12312;53.362;-1.518;2022-09-06T04:47:25;20.60;;;14.43;;
24153;SDS011;12312;53.362;-1.518;2022-09-06T04:49:51;19.77;;;13.55;;
24153;SDS011;12312;53.362;-1.518;2022-09-06T04:52:18;19.85;;;14.15;;
24153;SDS011;12312;53.362;-1.518;2022-09-06T04:54:44;19.83;;;13.85;;
24153;SDS011;12312;53.362;-1.518;2022-09-06T04:57:09;16.70;;;12.95;;
24153;SDS011;12312;53.362;-1.518;2022-09-06T04:59:35;19.27;;;13.50;;
24153;SDS011;12312;53.362;-1.518;2022-09-06T05:02:00;20.05;;;13.25;;
24153;SDS011;12312;53.362;-1.518;2022-09-06T05:04:26;19.48;;;14.13;;
24153;SDS011;12312;53.362;-1.518;2022-09-06T05:07:03;17.23;;;13.13;;
24153;SDS011;12312;53.362;-1.518;2022-09-06T05:09:30;19.70;;;13.65;;
24153;SDS011;12312;53.362;-1.518;2022-09-06T05:11:57;20.08;;;13.90;;
24153;SDS011;12312;53.362;-1.518;2022-09-06T05:14:23;26.50;;;13.73;;
24153;SDS011;12312;53.362;-1.518;2022-09-06T05:16:48;18.75;;;13.82;;
24153;SDS011;12312;53.362;-1.518;2022-09-06T05:19:14;18.73;;;13.40;;
24153;SDS011;12312;53.362;-1.518;2022-09-06T05:21:41;19.70;;;13.52;;
24153;SDS011;12312;53.362;-1.518;2022-09-06T05:24:06;19.60;;;13.52;;
24153;SDS011;12312;53.362;-1.518;2022-09-06T05:26:32;21.55;;;13.98;;
24153;SDS011;12312;53.362;-1.518;2022-09-06T05:28:59;20.77;;;14.57;;
24153;SDS011;12312;53.362;-1.518;2022-09-06T05:31:25;21.17;;;15.38;;
24153;SDS011;12312;53.362;-1.518;2022-09-06T05:33:52;20.77;;;14.55;;
24153;SDS011;12312;53.362;-1.518;2022-09-06T05:36:19;22.83;;;15.35;;
24153;SDS011;12312;53.362;-1.518;2022-09-06T05:38:47;21.55;;;15.20;;
24153;SDS011;12312;53.362;-1.518;2022-09-06T05:41:14;21.98;;;14.85;;
24153;SDS011;12312;53.362;-1.518;2022-09-06T05:43:39;25.13;;;15.35;;
24153;SDS011;12312;53.362;-1.518;2022-09-06T05:46:05;23.95;;;15.75;;
24153;SDS011;12312;53.362;-1.518;2022-09-06T05:48:30;24.25;;;15.20;;
24153;SDS011;12312;53.362;-1.518;2022-09-06T05:51:02;24.15;;;15.90;;
24153;SDS011;12312;53.362;-1.518;2022-09-06T05:53:34;25.27;;;16.25;;
24153;SDS011;12312;53.362;-1.518;2022-09-06T05:56:01;23.92;;;16.00;;
24153;SDS011;12312;53.362;-1.518;2022-09-06T05:58:28;24.50;;;16.23;;
24153;SDS011;12312;53.362;-1.518;2022-09-06T06:01:04;25.17;;;17.42;;
24153;SDS011;12312;53.362;-1.518;2022-09-06T06:03:32;28.73;;;16.98;;
24153;SDS011;12312;53.362;-1.518;2022-09-06T06:05:58;28.27;;;17.52;;
24153;SDS011;12312;53.362;-1.518;2022-09-06T06:08:24;28.10;;;18.58;;
24153;SDS011;12312;53.362;-1.518;2022-09-06T06:10:49;27.88;;;18.30;;
24153;SDS011;12312;53.362;-1.518;2022-09-06T06:13:15;29.23;;;18.00;;
24153;SDS011;12312;53.362;-1.518;2022-09-06T06:15:40;30.77;;;19.05;;
24153;SDS011;12312;53.362;-1.518;2022-09-06T06:18:06;31.80;;;19.70;;
24153;SDS011;12312;53.362;-1.518;2022-09-06T06:20:32;36.40;;;20.92;;
24153;SDS011;12312;53.362;-1.518;2022-09-06T06:22:58;39.22;;;21.08;;
24153;SDS011;12312;53.362;-1.518;2022-09-06T06:25:23;36.80;;;21.08;;
24153;SDS011;12312;53.362;-1.518;2022-09-06T06:27:50;38.72;;;21.83;;
24153;SDS011;12312;53.362;-1.518;2022-09-06T06:30:17;36.33;;;20.60;;
24153;SDS011;12312;53.362;-1.518;2022-09-06T06:32:43;37.88;;;21.45;;
24153;SDS011;12312;53.362;-1.518;2022-09-06T06:35:09;38.67;;;22.80;;
24153;SDS011;12312;53.362;-1.518;2022-09-06T06:37:35;41.85;;;22.85;;
24153;SDS011;12312;53.362;-1.518;2022-09-06T06:40:00;44.50;;;24.30;;
24153;SDS011;12312;53.362;-1.518;2022-09-06T06:42:26;41.63;;;22.58;;
24153;SDS011;12312;53.362;-1.518;2022-09-06T06:44:52;41.95;;;22.00;;
24153;SDS011;12312;53.362;-1.518;2022-09-06T06:47:18;43.60;;;22.40;;
24153;SDS011;12312;53.362;-1.518;2022-09-06T06:49:45;42.88;;;23.38;;
24153;SDS011;12312;53.362;-1.518;2022-09-06T06:52:11;46.55;;;24.15;;
24153;SDS011;12312;53.362;-1.518;2022-09-06T06:54:37;52.85;;;24.13;;
24153;SDS011;12312;53.362;-1.518;2022-09-06T06:57:03;52.58;;;24.42;;
24153;SDS011;12312;53.362;-1.518;2022-09-06T06:59:29;60.28;;;27.25;;
24153;SDS011;12312;53.362;-1.518;2022-09-06T07:01:55;57.92;;;25.73;;
24153;SDS011;12312;53.362;-1.518;2022-09-06T07:04:20;52.88;;;24.38;;
24153;SDS011;12312;53.362;-1.518;2022-09-06T07:06:51;57.08;;;26.15;;
24153;SDS011;12312;53.362;-1.518;2022-09-06T07:09:19;58.97;;;25.63;;
24153;SDS011;12312;53.362;-1.518;2022-09-06T07:11:46;54.58;;;24.95;;
24153;SDS011;12312;53.362;-1.518;2022-09-06T07:14:13;57.60;;;25.65;;
24153;SDS011;12312;53.362;-1.518;2022-09-06T07:16:39;56.75;;;25.23;;
24153;SDS011;12312;53.362;-1.518;2022-09-06T07:19:06;54.58;;;24.65;;
24153;SDS011;12312;53.362;-1.518;2022-09-06T07:21:32;58.22;;;24.73;;
24153;SDS011;12312;53.362;-1.518;2022-09-06T07:23:57;54.38;;;24.15;;
24153;SDS011;12312;53.362;-1.518;2022-09-06T07:26:28;59.80;;;26.23;;
24153;SDS011;12312;53.362;-1.518;2022-09-06T07:28:55;60.67;;;26.02;;
24153;SDS011;12312;53.362;-1.518;2022-09-06T07:31:26;53.80;;;24.90;;
24153;SDS011;12312;53.362;-1.518;2022-09-06T07:33:53;50.42;;;22.38;;
24153;SDS011;12312;53.362;-1.518;2022-09-06T07:36:19;53.17;;;24.00;;
24153;SDS011;12312;53.362;-1.518;2022-09-06T07:38:48;51.80;;;24.45;;
24153;SDS011;12312;53.362;-1.518;2022-09-06T07:41:16;48.85;;;24.35;;
24153;SDS011;12312;53.362;-1.518;2022-09-06T07:43:43;50.03;;;24.33;;
24153;SDS011;12312;53.362;-1.518;2022-09-06T07:46:12;49.00;;;24.13;;
24153;SDS011;12312;53.362;-1.518;2022-09-06T07:48:39;49.55;;;24.17;;
24153;SDS011;12312;53.362;-1.518;2022-09-06T07:51:11;52.85;;;24.65;;
24153;SDS011;12312;53.362;-1.518;2022-09-06T07:53:42;49.55;;;24.63;;
24153;SDS011;12312;53.362;-1.518;2022-09-06T07:56:09;51.50;;;24.10;;
24153;SDS011;12312;53.362;-1.518;2022-09-06T07:58:36;49.47;;;23.92;;
24153;SDS011;12312;53.362;-1.518;2022-09-06T08:04:04;46.97;;;22.17;;
24153;SDS011;12312;53.362;-1.518;2022-09-06T08:06:40;44.47;;;23.30;;
24153;SDS011;12312;53.362;-1.518;2022-09-06T08:09:11;43.67;;;22.42;;
24153;SDS011;12312;53.362;-1.518;2022-09-06T08:11:37;50.88;;;23.70;;
24153;SDS011;12312;53.362;-1.518;2022-09-06T08:14:04;45.80;;;22.95;;
24153;SDS011;12312;53.362;-1.518;2022-09-06T08:16:32;46.88;;;22.40;;
24153;SDS011;12312;53.362;-1.518;2022-09-06T08:19:00;44.47;;;22.92;;
24153;SDS011;12312;53.362;-1.518;2022-09-06T08:21:27;44.08;;;24.02;;
24153;SDS011;12312;53.362;-1.518;2022-09-06T08:23:59;51.42;;;25.13;;
24153;SDS011;12312;53.362;-1.518;2022-09-06T08:26:31;47.35;;;24.80;;
24153;SDS011;12312;53.362;-1.518;2022-09-06T08:29:02;52.42;;;25.52;;
24153;SDS011;12312;53.362;-1.518;2022-09-06T08:31:32;52.15;;;27.55;;
24153;SDS011;12312;53.362;-1.518;2022-09-06T08:33:58;56.13;;;27.33;;
24153;SDS011;12312;53.362;-1.518;2022-09-06T08:36:24;46.92;;;26.30;;
24153;SDS011;12312;53.362;-1.518;2022-09-06T08:38:53;59.30;;;28.95;;
24153;SDS011;12312;53.362;-1.518;2022-09-06T08:46:36;54.28;;;28.60;;
24153;SDS011;12312;53.362;-1.518;2022-09-06T08:49:04;56.20;;;29.20;;
24153;SDS011;12312;53.362;-1.518;2022-09-06T08:54:20;61.25;;;30.27;;
24153;SDS011;12312;53.362;-1.518;2022-09-06T08:57:00;61.00;;;30.00;;
24153;SDS011;12312;53.362;-1.518;2022-09-06T08:59:27;57.70;;;29.13;;
24153;SDS011;12312;53.362;-1.518;2022-09-06T09:04:33;56.45;;;29.15;;
24153;SDS011;12312;53.362;-1.518;2022-09-06T09:07:45;56.10;;;29.02;;
24153;SDS011;12312;53.362;-1.518;2022-09-06T09:09:56;63.20;;;32.13;;
24153;SDS011;12312;53.362;-1.518;2022-09-06T09:12:25;65.75;;;32.60;;
24153;SDS011;12312;53.362;-1.518;2022-09-06T09:14:54;69.40;;;32.97;;
24153;SDS011;12312;53.362;-1.518;2022-09-06T09:17:26;71.15;;;35.17;;
24153;SDS011;12312;53.362;-1.518;2022-09-06T09:19:55;75.78;;;34.47;;
24153;SDS011;12312;53.362;-1.518;2022-09-06T09:22:20;68.57;;;33.10;;
24153;SDS011;12312;53.362;-1.518;2022-09-06T09:24:47;69.60;;;34.58;;
24153;SDS011;12312;53.362;-1.518;2022-09-06T09:27:17;76.07;;;36.45;;
24153;SDS011;12312;53.362;-1.518;2022-09-06T09:30:08;74.50;;;35.00;;
24153;SDS011;12312;53.362;-1.518;2022-09-06T09:32:34;83.55;;;37.17;;
24153;SDS011;12312;53.362;-1.518;2022-09-06T09:35:22;78.63;;;36.08;;
24153;SDS011;12312;53.362;-1.518;2022-09-06T09:38:11;89.07;;;37.50;;
24153;SDS011;12312;53.362;-1.518;2022-09-06T09:40:50;81.55;;;37.22;;
24153;SDS011;12312;53.362;-1.518;2022-09-06T09:43:24;85.22;;;35.92;;
24153;SDS011;12312;53.362;-1.518;2022-09-06T09:51:26;78.32;;;35.40;;
24153;SDS011;12312;53.362;-1.518;2022-09-06T09:53:54;69.45;;;33.55;;
24153;SDS011;12312;53.362;-1.518;2022-09-06T09:57:07;76.78;;;34.17;;
24153;SDS011;12312;53.362;-1.518;2022-09-06T09:59:56;68.25;;;34.05;;
24153;SDS011;12312;53.362;-1.518;2022-09-06T10:04:48;69.55;;;33.00;;
24153;SDS011;12312;53.362;-1.518;2022-09-06T10:07:17;67.47;;;32.47;;
24153;SDS011;12312;53.362;-1.518;2022-09-06T10:09:46;63.47;;;32.72;;
24153;SDS011;12312;53.362;-1.518;2022-09-06T10:12:18;65.53;;;32.15;;
24153;SDS011;12312;53.362;-1.518;2022-09-06T10:15:05;65.13;;;31.00;;
24153;SDS011;12312;53.362;-1.518;2022-09-06T10:25:53;61.92;;;30.23;;
24153;SDS011;12312;53.362;-1.518;2022-09-06T10:30:53;61.53;;;31.08;;
24153;SDS011;12312;53.362;-1.518;2022-09-06T10:35:59;60.83;;;29.95;;
24153;SDS011;12312;53.362;-1.518;2022-09-06T10:46:45;71.15;;;34.20;;
24153;SDS011;12312;53.362;-1.518;2022-09-06T10:49:15;61.65;;;33.92;;
24153;SDS011;12312;53.362;-1.518;2022-09-06T10:51:51;73.63;;;36.38;;
24153;SDS011;12312;53.362;-1.518;2022-09-06T10:54:21;75.28;;;35.92;;
24153;SDS011;12312;53.362;-1.518;2022-09-06T10:56:52;75.03;;;36.70;;
24153;SDS011;12312;53.362;-1.518;2022-09-06T11:02:17;78.70;;;34.50;;
24153;SDS011;12312;53.362;-1.518;2022-09-06T11:05:02;79.88;;;36.35;;
24153;SDS011;12312;53.362;-1.518;2022-09-06T11:07:32;79.45;;;36.20;;
24153;SDS011;12312;53.362;-1.518;2022-09-06T11:10:05;70.43;;;34.35;;
24153;SDS011;12312;53.362;-1.518;2022-09-06T11:12:53;82.57;;;34.25;;
24153;SDS011;12312;53.362;-1.518;2022-09-06T11:15:25;86.22;;;33.28;;
24153;SDS011;12312;53.362;-1.518;2022-09-06T11:18:01;78.38;;;34.30;;
24153;SDS011;12312;53.362;-1.518;2022-09-06T11:20:41;87.63;;;35.80;;
24153;SDS011;12312;53.362;-1.518;2022-09-06T11:29:00;90.95;;;41.58;;
24153;SDS011;12312;53.362;-1.518;2022-09-06T11:31:31;93.80;;;42.05;;
24153;SDS011;12312;53.362;-1.518;2022-09-06T11:34:02;85.00;;;40.78;;
24153;SDS011;12312;53.362;-1.518;2022-09-06T11:36:39;88.57;;;40.88;;
24153;SDS011;12312;53.362;-1.518;2022-09-06T11:39:10;83.97;;;40.67;;
24153;SDS011;12312;53.362;-1.518;2022-09-06T11:41:38;79.40;;;38.95;;
24153;SDS011;12312;53.362;-1.518;2022-09-06T11:44:08;73.47;;;37.65;;
24153;SDS011;12312;53.362;-1.518;2022-09-06T11:51:37;57.83;;;32.20;;
24153;SDS011;12312;53.362;-1.518;2022-09-06T12:04:20;24.92;;;14.77;;
24153;SDS011;12312;53.362;-1.518;2022-09-06T12:07:07;14.15;;;7.95;;
24153;SDS011;12312;53.362;-1.518;2022-09-06T12:09:39;13.25;;;5.15;;
24153;SDS011;12312;53.362;-1.518;2022-09-06T12:12:10;8.00;;;4.25;;
24153;SDS011;12312;53.362;-1.518;2022-09-06T12:25:02;11.98;;;3.45;;
24153;SDS011;12312;53.362;-1.518;2022-09-06T12:27:31;10.07;;;3.60;;
24153;SDS011;12312;53.362;-1.518;2022-09-06T12:32:33;9.45;;;4.22;;
24153;SDS011;12312;53.362;-1.518;2022-09-06T12:35:01;9.20;;;3.22;;
24153;SDS011;12312;53.362;-1.518;2022-09-06T12:37:34;7.00;;;3.60;;
24153;SDS011;12312;53.362;-1.518;2022-09-06T12:40:17;6.50;;;3.72;;
24153;SDS011;12312;53.362;-1.518;2022-09-06T12:42:44;16.45;;;3.75;;
24153;SDS011;12312;53.362;-1.518;2022-09-06T12:45:12;11.95;;;3.55;;
24153;SDS011;12312;53.362;-1.518;2022-09-06T12:47:38;7.72;;;3.35;;
24153;SDS011;12312;53.362;-1.518;2022-09-06T12:52:51;12.88;;;3.60;;
24153;SDS011;12312;53.362;-1.518;2022-09-06T12:57:52;11.73;;;3.35;;
24153;SDS011;12312;53.362;-1.518;2022-09-06T13:00:22;10.18;;;3.30;;
24153;SDS011;12312;53.362;-1.518;2022-09-06T13:03:15;11.13;;;3.30;;
24153;SDS011;12312;53.362;-1.518;2022-09-06T13:05:57;9.10;;;2.85;;
24153;SDS011;12312;53.362;-1.518;2022-09-06T13:08:46;8.18;;;2.70;;
24153;SDS011;12312;53.362;-1.518;2022-09-06T13:11:15;6.40;;;2.50;;
24153;SDS011;12312;53.362;-1.518;2022-09-06T13:13:46;9.23;;;2.13;;
24153;SDS011;12312;53.362;-1.518;2022-09-06T13:16:18;5.75;;;2.47;;
24153;SDS011;12312;53.362;-1.518;2022-09-06T13:18:52;9.75;;;2.72;;
24153;SDS011;12312;53.362;-1.518;2022-09-06T13:21:51;10.82;;;2.45;;
24153;SDS011;12312;53.362;-1.518;2022-09-06T13:24:17;8.20;;;3.22;;
24153;SDS011;12312;53.362;-1.518;2022-09-06T13:26:45;10.07;;;2.50;;
24153;SDS011;12312;53.362;-1.518;2022-09-06T13:31:42;8.75;;;2.80;;
24153;SDS011;12312;53.362;-1.518;2022-09-06T13:34:10;8.57;;;3.10;;
24153;SDS011;12312;53.362;-1.518;2022-09-06T13:37:04;6.43;;;2.28;;
24153;SDS011;12312;53.362;-1.518;2022-09-06T13:42:05;9.60;;;2.60;;
24153;SDS011;12312;53.362;-1.518;2022-09-06T13:44:37;13.70;;;3.55;;
24153;SDS011;12312;53.362;-1.518;2022-09-06T13:47:03;8.15;;;3.10;;
24153;SDS011;12312;53.362;-1.518;2022-09-06T13:49:30;8.40;;;2.92;;
24153;SDS011;12312;53.362;-1.518;2022-09-06T13:51:58;10.18;;;2.70;;
24153;SDS011;12312;53.362;-1.518;2022-09-06T13:54:28;9.82;;;2.53;;
24153;SDS011;12312;53.362;-1.518;2022-09-06T13:56:54;9.32;;;2.60;;
24153;SDS011;12312;53.362;-1.518;2022-09-06T13:59:21;6.72;;;2.35;;
24153;SDS011;12312;53.362;-1.518;2022-09-06T14:01:55;5.72;;;2.13;;
24153;SDS011;12312;53.362;-1.518;2022-09-06T14:04:31;9.27;;;1.77;;
24153;SDS011;12312;53.362;-1.518;2022-09-06T14:06:57;6.45;;;1.48;;
24153;SDS011;12312;53.362;-1.518;2022-09-06T14:09:23;6.10;;;1.30;;
24153;SDS011;12312;53.362;-1.518;2022-09-06T14:14:58;4.75;;;1.15;;
24153;SDS011;12312;53.362;-1.518;2022-09-06T14:17:24;5.80;;;1.10;;
24153;SDS011;12312;53.362;-1.518;2022-09-06T14:19:50;7.75;;;1.50;;
24153;SDS011;12312;53.362;-1.518;2022-09-06T14:22:15;8.18;;;1.60;;
24153;SDS011;12312;53.362;-1.518;2022-09-06T14:24:41;8.05;;;1.73;;
24153;SDS011;12312;53.362;-1.518;2022-09-06T14:27:07;8.50;;;1.90;;
24153;SDS011;12312;53.362;-1.518;2022-09-06T14:29:33;4.60;;;1.30;;
24153;SDS011;12312;53.362;-1.518;2022-09-06T14:32:00;8.93;;;1.92;;
24153;SDS011;12312;53.362;-1.518;2022-09-06T14:34:26;7.05;;;1.45;;
24153;SDS011;12312;53.362;-1.518;2022-09-06T14:36:52;8.30;;;1.80;;
24153;SDS011;12312;53.362;-1.518;2022-09-06T14:39:18;7.80;;;1.63;;
24153;SDS011;12312;53.362;-1.518;2022-09-06T14:41:44;6.13;;;1.42;;
24153;SDS011;12312;53.362;-1.518;2022-09-06T14:44:09;7.07;;;1.50;;
24153;SDS011;12312;53.362;-1.518;2022-09-06T14:46:35;4.75;;;1.40;;
24153;SDS011;12312;53.362;-1.518;2022-09-06T14:49:02;4.88;;;1.38;;
24153;SDS011;12312;53.362;-1.518;2022-09-06T14:51:31;5.75;;;1.65;;
24153;SDS011;12312;53.362;-1.518;2022-09-06T14:54:01;3.97;;;1.10;;
24153;SDS011;12312;53.362;-1.518;2022-09-06T14:56:28;5.63;;;1.33;;
24153;SDS011;12312;53.362;-1.518;2022-09-06T14:58:55;7.15;;;0.95;;
24153;SDS011;12312;53.362;-1.518;2022-09-06T15:01:24;5.20;;;1.50;;
24153;SDS011;12312;53.362;-1.518;2022-09-06T15:03:54;6.80;;;1.45;;
24153;SDS011;12312;53.362;-1.518;2022-09-06T15:06:23;4.70;;;1.20;;
24153;SDS011;12312;53.362;-1.518;2022-09-06T15:08:49;5.13;;;1.10;;
24153;SDS011;12312;53.362;-1.518;2022-09-06T15:11:28;5.53;;;1.23;;
24153;SDS011;12312;53.362;-1.518;2022-09-06T15:14:05;9.90;;;1.60;;
24153;SDS011;12312;53.362;-1.518;2022-09-06T15:16:32;7.90;;;1.70;;
24153;SDS011;12312;53.362;-1.518;2022-09-06T15:19:00;9.10;;;1.70;;
24153;SDS011;12312;53.362;-1.518;2022-09-06T15:21:29;6.15;;;1.30;;
24153;SDS011;12312;53.362;-1.518;2022-09-06T15:23:55;7.72;;;1.65;;
24153;SDS011;12312;53.362;-1.518;2022-09-06T15:26:21;8.07;;;1.80;;
24153;SDS011;12312;53.362;-1.518;2022-09-06T15:28:47;6.68;;;1.77;;
24153;SDS011;12312;53.362;-1.518;2022-09-06T15:31:15;9.80;;;1.45;;
24153;SDS011;12312;53.362;-1.518;2022-09-06T15:33:41;6.25;;;1.63;;
24153;SDS011;12312;53.362;-1.518;2022-09-06T15:36:07;5.85;;;1.20;;
24153;SDS011;12312;53.362;-1.518;2022-09-06T15:38:35;6.90;;;1.10;;
24153;SDS011;12312;53.362;-1.518;2022-09-06T15:41:03;6.38;;;1.45;;
24153;SDS011;12312;53.362;-1.518;2022-09-06T15:43:32;8.65;;;1.80;;
24153;SDS011;12312;53.362;-1.518;2022-09-06T15:45:58;9.13;;;1.85;;
24153;SDS011;12312;53.362;-1.518;2022-09-06T15:48:25;4.97;;;1.20;;
24153;SDS011;12312;53.362;-1.518;2022-09-06T15:50:50;6.53;;;1.80;;
24153;SDS011;12312;53.362;-1.518;2022-09-06T15:53:16;5.95;;;1.55;;
24153;SDS011;12312;53.362;-1.518;2022-09-06T15:55:42;6.32;;;1.45;;
24153;SDS011;12312;53.362;-1.518;2022-09-06T15:58:20;5.68;;;1.55;;
24153;SDS011;12312;53.362;-1.518;2022-09-06T16:03:39;7.65;;;1.60;;
24153;SDS011;12312;53.362;-1.518;2022-09-06T16:06:09;3.65;;;1.27;;
24153;SDS011;12312;53.362;-1.518;2022-09-06T16:08:37;4.50;;;1.15;;
24153;SDS011;12312;53.362;-1.518;2022-09-06T16:11:10;4.28;;;0.90;;
24153;SDS011;12312;53.362;-1.518;2022-09-06T16:13:38;4.95;;;1.33;;
24153;SDS011;12312;53.362;-1.518;2022-09-06T16:16:06;6.35;;;1.10;;
24153;SDS011;12312;53.362;-1.518;2022-09-06T16:18:33;6.93;;;1.23;;
24153;SDS011;12312;53.362;-1.518;2022-09-06T16:21:02;4.90;;;1.08;;
24153;SDS011;12312;53.362;-1.518;2022-09-06T16:23:29;4.55;;;0.93;;
24153;SDS011;12312;53.362;-1.518;2022-09-06T16:25:55;5.55;;;1.02;;
24153;SDS011;12312;53.362;-1.518;2022-09-06T16:28:21;2.60;;;0.88;;
24153;SDS011;12312;53.362;-1.518;2022-09-06T16:30:46;8.77;;;1.40;;
24153;SDS011;12312;53.362;-1.518;2022-09-06T16:33:12;4.85;;;1.00;;
24153;SDS011;12312;53.362;-1.518;2022-09-06T16:35:39;4.57;;;1.35;;
24153;SDS011;12312;53.362;-1.518;2022-09-06T16:38:05;3.40;;;1.02;;
24153;SDS011;12312;53.362;-1.518;2022-09-06T16:40:32;7.28;;;1.20;;